sensor_id;sensor_type;location;lat;lon;timestamp;P1;durP1;ratioP1;P2;durP2;ratioP2
15693;SDS011;7947;48.834;9.132;2023-04-16T00:02:39;8.07;;;6.40;;
15693;SDS011;7947;48.834;9.132;2023-04-16T00:05:42;8.17;;;6.53;;
15693;SDS011;7947;48.834;9.132;2023-04-16T00:08:45;8.93;;;5.93;;
15693;SDS011;7947;48.834;9.132;2023-04-16T00:11:49;8.07;;;5.93;;
15693;SDS011;7947;48.834;9.132;2023-04-16T00:14:52;7.50;;;5.77;;
15693;SDS011;7947;48.834;9.132;2023-04-16T00:17:54;7.83;;;5.33;;
15693;SDS011;7947;48.834;9.132;2023-04-16T00:20:58;7.07;;;5.20;;
15693;SDS011;7947;48.834;9.132;2023-04-16T00:24:01;7.73;;;5.77;;
15693;SDS011;7947;48.834;9.132;2023-04-16T00:27:05;7.63;;;5.87;;
15693;SDS011;7947;48.834;9.132;2023-04-16T00:30:08;6.63;;;5.07;;
15693;SDS011;7947;48.834;9.132;2023-04-16T00:33:11;6.77;;;5.40;;
15693;SDS011;7947;48.834;9.132;2023-04-16T00:36:14;6.40;;;5.23;;
15693;SDS011;7947;48.834;9.132;2023-04-16T00:39:16;7.63;;;5.83;;
15693;SDS011;7947;48.834;9.132;2023-04-16T00:42:21;7.93;;;5.77;;
15693;SDS011;7947;48.834;9.132;2023-04-16T00:45:23;8.37;;;5.93;;
15693;SDS011;7947;48.834;9.132;2023-04-16T00:48:27;7.47;;;5.27;;
15693;SDS011;7947;48.834;9.132;2023-04-16T00:51:32;9.03;;;6.00;;
15693;SDS011;7947;48.834;9.132;2023-04-16T00:54:36;7.20;;;6.07;;
15693;SDS011;7947;48.834;9.132;2023-04-16T00:57:41;7.70;;;5.30;;
15693;SDS011;7947;48.834;9.132;2023-04-16T01:00:44;6.67;;;5.33;;
15693;SDS011;7947;48.834;9.132;2023-04-16T01:03:47;7.80;;;5.10;;
15693;SDS011;7947;48.834;9.132;2023-04-16T01:06:51;7.87;;;5.70;;
15693;SDS011;7947;48.834;9.132;2023-04-16T01:09:54;6.50;;;4.93;;
15693;SDS011;7947;48.834;9.132;2023-04-16T01:12:58;6.57;;;5.20;;
15693;SDS011;7947;48.834;9.132;2023-04-16T01:16:01;6.97;;;5.17;;
15693;SDS011;7947;48.834;9.132;2023-04-16T01:19:03;6.53;;;4.90;;
15693;SDS011;7947;48.834;9.132;2023-04-16T01:22:08;6.13;;;4.63;;
15693;SDS011;7947;48.834;9.132;2023-04-16T01:25:12;6.97;;;4.90;;
15693;SDS011;7947;48.834;9.132;2023-04-16T01:28:16;6.03;;;4.80;;
15693;SDS011;7947;48.834;9.132;2023-04-16T01:31:18;8.63;;;5.90;;
15693;SDS011;7947;48.834;9.132;2023-04-16T01:34:21;6.53;;;4.90;;
15693;SDS011;7947;48.834;9.132;2023-04-16T01:37:25;6.80;;;5.37;;
15693;SDS011;7947;48.834;9.132;2023-04-16T01:40:28;5.97;;;4.40;;
15693;SDS011;7947;48.834;9.132;2023-04-16T01:43:31;6.43;;;5.03;;
15693;SDS011;7947;48.834;9.132;2023-04-16T01:46:34;6.23;;;4.60;;
15693;SDS011;7947;48.834;9.132;2023-04-16T01:49:37;6.33;;;4.67;;
15693;SDS011;7947;48.834;9.132;2023-04-16T01:52:41;5.17;;;4.13;;
15693;SDS011;7947;48.834;9.132;2023-04-16T01:55:43;6.67;;;4.80;;
15693;SDS011;7947;48.834;9.132;2023-04-16T01:58:46;4.83;;;4.03;;
15693;SDS011;7947;48.834;9.132;2023-04-16T02:01:49;7.47;;;4.73;;
15693;SDS011;7947;48.834;9.132;2023-04-16T02:04:51;6.73;;;4.33;;
15693;SDS011;7947;48.834;9.132;2023-04-16T02:07:56;5.60;;;3.83;;
15693;SDS011;7947;48.834;9.132;2023-04-16T02:10:59;6.27;;;4.70;;
15693;SDS011;7947;48.834;9.132;2023-04-16T02:14:02;7.83;;;4.30;;
15693;SDS011;7947;48.834;9.132;2023-04-16T02:17:04;6.13;;;4.53;;
15693;SDS011;7947;48.834;9.132;2023-04-16T02:20:08;8.20;;;4.70;;
15693;SDS011;7947;48.834;9.132;2023-04-16T02:23:12;7.73;;;5.17;;
15693;SDS011;7947;48.834;9.132;2023-04-16T02:26:16;6.17;;;4.60;;
15693;SDS011;7947;48.834;9.132;2023-04-16T02:29:18;5.90;;;4.30;;
15693;SDS011;7947;48.834;9.132;2023-04-16T02:32:22;6.80;;;5.07;;
15693;SDS011;7947;48.834;9.132;2023-04-16T02:35:25;6.70;;;5.00;;
15693;SDS011;7947;48.834;9.132;2023-04-16T02:38:29;7.50;;;5.63;;
15693;SDS011;7947;48.834;9.132;2023-04-16T02:41:32;9.10;;;5.47;;
15693;SDS011;7947;48.834;9.132;2023-04-16T02:44:35;7.27;;;5.30;;
15693;SDS011;7947;48.834;9.132;2023-04-16T02:47:38;6.33;;;5.37;;
15693;SDS011;7947;48.834;9.132;2023-04-16T02:50:43;8.57;;;5.40;;
15693;SDS011;7947;48.834;9.132;2023-04-16T02:53:47;6.87;;;5.20;;
15693;SDS011;7947;48.834;9.132;2023-04-16T02:56:50;9.50;;;6.80;;
15693;SDS011;7947;48.834;9.132;2023-04-16T02:59:53;6.73;;;5.17;;
15693;SDS011;7947;48.834;9.132;2023-04-16T03:02:56;6.73;;;5.20;;
15693;SDS011;7947;48.834;9.132;2023-04-16T03:05:59;7.20;;;5.30;;
15693;SDS011;7947;48.834;9.132;2023-04-16T03:09:03;9.40;;;6.23;;
15693;SDS011;7947;48.834;9.132;2023-04-16T03:12:05;10.13;;;6.20;;
15693;SDS011;7947;48.834;9.132;2023-04-16T03:15:08;6.73;;;5.17;;
15693;SDS011;7947;48.834;9.132;2023-04-16T03:18:11;9.17;;;6.23;;
15693;SDS011;7947;48.834;9.132;2023-04-16T03:21:14;7.53;;;5.70;;
15693;SDS011;7947;48.834;9.132;2023-04-16T03:24:18;8.27;;;5.77;;
15693;SDS011;7947;48.834;9.132;2023-04-16T03:27:21;8.83;;;6.43;;
15693;SDS011;7947;48.834;9.132;2023-04-16T03:30:24;8.50;;;6.03;;
15693;SDS011;7947;48.834;9.132;2023-04-16T03:33:26;10.77;;;7.10;;
15693;SDS011;7947;48.834;9.132;2023-04-16T03:36:29;10.77;;;6.87;;
15693;SDS011;7947;48.834;9.132;2023-04-16T03:39:34;10.03;;;6.67;;
15693;SDS011;7947;48.834;9.132;2023-04-16T03:42:38;8.80;;;6.40;;
15693;SDS011;7947;48.834;9.132;2023-04-16T03:45:42;9.30;;;6.20;;
15693;SDS011;7947;48.834;9.132;2023-04-16T03:48:45;11.03;;;7.23;;
15693;SDS011;7947;48.834;9.132;2023-04-16T03:51:48;9.90;;;6.17;;
15693;SDS011;7947;48.834;9.132;2023-04-16T03:54:52;10.60;;;6.93;;
15693;SDS011;7947;48.834;9.132;2023-04-16T03:57:55;11.67;;;6.80;;
15693;SDS011;7947;48.834;9.132;2023-04-16T04:00:58;8.97;;;6.00;;
15693;SDS011;7947;48.834;9.132;2023-04-16T04:04:00;8.00;;;6.10;;
15693;SDS011;7947;48.834;9.132;2023-04-16T04:07:03;11.70;;;7.17;;
15693;SDS011;7947;48.834;9.132;2023-04-16T04:10:10;8.27;;;5.93;;
15693;SDS011;7947;48.834;9.132;2023-04-16T04:13:12;9.70;;;6.53;;
15693;SDS011;7947;48.834;9.132;2023-04-16T04:16:15;9.63;;;5.87;;
15693;SDS011;7947;48.834;9.132;2023-04-16T04:19:18;9.10;;;5.93;;
15693;SDS011;7947;48.834;9.132;2023-04-16T04:22:21;10.50;;;6.50;;
15693;SDS011;7947;48.834;9.132;2023-04-16T04:25:25;8.47;;;5.57;;
15693;SDS011;7947;48.834;9.132;2023-04-16T04:28:28;9.83;;;6.17;;
15693;SDS011;7947;48.834;9.132;2023-04-16T04:31:31;8.97;;;6.17;;
15693;SDS011;7947;48.834;9.132;2023-04-16T04:34:34;9.27;;;5.73;;
15693;SDS011;7947;48.834;9.132;2023-04-16T04:37:37;9.73;;;6.63;;
15693;SDS011;7947;48.834;9.132;2023-04-16T04:40:41;12.93;;;6.37;;
15693;SDS011;7947;48.834;9.132;2023-04-16T04:43:44;11.50;;;6.47;;
15693;SDS011;7947;48.834;9.132;2023-04-16T04:46:46;9.37;;;6.03;;
15693;SDS011;7947;48.834;9.132;2023-04-16T04:49:49;9.87;;;6.20;;
15693;SDS011;7947;48.834;9.132;2023-04-16T04:52:52;8.40;;;5.63;;
15693;SDS011;7947;48.834;9.132;2023-04-16T04:55:56;10.67;;;6.47;;
15693;SDS011;7947;48.834;9.132;2023-04-16T04:59:12;9.23;;;6.30;;
15693;SDS011;7947;48.834;9.132;2023-04-16T05:02:15;11.97;;;6.30;;
15693;SDS011;7947;48.834;9.132;2023-04-16T05:05:19;9.43;;;6.07;;
15693;SDS011;7947;48.834;9.132;2023-04-16T05:08:22;10.53;;;6.33;;
15693;SDS011;7947;48.834;9.132;2023-04-16T05:11:26;11.23;;;6.37;;
15693;SDS011;7947;48.834;9.132;2023-04-16T05:14:28;8.80;;;6.00;;
15693;SDS011;7947;48.834;9.132;2023-04-16T05:17:31;10.23;;;6.60;;
15693;SDS011;7947;48.834;9.132;2023-04-16T05:20:34;12.33;;;7.10;;
15693;SDS011;7947;48.834;9.132;2023-04-16T05:23:38;13.70;;;8.23;;
15693;SDS011;7947;48.834;9.132;2023-04-16T05:26:42;15.20;;;8.50;;
15693;SDS011;7947;48.834;9.132;2023-04-16T05:29:44;13.23;;;8.47;;
15693;SDS011;7947;48.834;9.132;2023-04-16T05:32:47;13.57;;;8.80;;
15693;SDS011;7947;48.834;9.132;2023-04-16T05:35:50;15.90;;;9.77;;
15693;SDS011;7947;48.834;9.132;2023-04-16T05:38:52;15.80;;;9.50;;
15693;SDS011;7947;48.834;9.132;2023-04-16T05:41:56;16.87;;;9.13;;
15693;SDS011;7947;48.834;9.132;2023-04-16T05:45:00;15.40;;;9.37;;
15693;SDS011;7947;48.834;9.132;2023-04-16T05:48:03;16.23;;;9.43;;
15693;SDS011;7947;48.834;9.132;2023-04-16T05:51:06;20.90;;;10.70;;
15693;SDS011;7947;48.834;9.132;2023-04-16T05:54:09;16.80;;;9.60;;
15693;SDS011;7947;48.834;9.132;2023-04-16T05:57:14;16.40;;;10.60;;
15693;SDS011;7947;48.834;9.132;2023-04-16T06:00:17;16.93;;;10.47;;
15693;SDS011;7947;48.834;9.132;2023-04-16T06:03:20;17.10;;;9.50;;
15693;SDS011;7947;48.834;9.132;2023-04-16T06:06:23;16.10;;;9.80;;
15693;SDS011;7947;48.834;9.132;2023-04-16T06:09:28;18.00;;;10.13;;
15693;SDS011;7947;48.834;9.132;2023-04-16T06:12:32;16.63;;;9.80;;
15693;SDS011;7947;48.834;9.132;2023-04-16T06:15:35;16.13;;;10.30;;
15693;SDS011;7947;48.834;9.132;2023-04-16T06:18:38;16.43;;;9.50;;
15693;SDS011;7947;48.834;9.132;2023-04-16T06:21:41;16.87;;;10.13;;
15693;SDS011;7947;48.834;9.132;2023-04-16T06:24:44;14.47;;;9.43;;
15693;SDS011;7947;48.834;9.132;2023-04-16T06:27:48;18.87;;;11.60;;
15693;SDS011;7947;48.834;9.132;2023-04-16T06:30:51;17.47;;;9.77;;
15693;SDS011;7947;48.834;9.132;2023-04-16T06:33:54;16.23;;;10.47;;
15693;SDS011;7947;48.834;9.132;2023-04-16T06:36:57;18.53;;;10.93;;
15693;SDS011;7947;48.834;9.132;2023-04-16T06:40:00;16.77;;;10.23;;
15693;SDS011;7947;48.834;9.132;2023-04-16T06:43:04;16.30;;;10.40;;
15693;SDS011;7947;48.834;9.132;2023-04-16T06:46:08;15.83;;;10.83;;
15693;SDS011;7947;48.834;9.132;2023-04-16T06:49:11;17.77;;;10.30;;
15693;SDS011;7947;48.834;9.132;2023-04-16T06:52:14;15.20;;;10.00;;
15693;SDS011;7947;48.834;9.132;2023-04-16T06:55:16;17.53;;;10.47;;
15693;SDS011;7947;48.834;9.132;2023-04-16T06:58:21;18.13;;;9.53;;
15693;SDS011;7947;48.834;9.132;2023-04-16T07:01:23;17.80;;;10.97;;
15693;SDS011;7947;48.834;9.132;2023-04-16T07:04:27;15.37;;;10.43;;
15693;SDS011;7947;48.834;9.132;2023-04-16T07:07:29;18.90;;;10.57;;
15693;SDS011;7947;48.834;9.132;2023-04-16T07:10:32;16.33;;;9.13;;
15693;SDS011;7947;48.834;9.132;2023-04-16T07:13:36;17.60;;;10.27;;
15693;SDS011;7947;48.834;9.132;2023-04-16T07:16:39;16.77;;;9.17;;
15693;SDS011;7947;48.834;9.132;2023-04-16T07:19:42;15.57;;;9.57;;
15693;SDS011;7947;48.834;9.132;2023-04-16T07:22:45;16.23;;;9.57;;
15693;SDS011;7947;48.834;9.132;2023-04-16T07:25:48;14.63;;;9.37;;
15693;SDS011;7947;48.834;9.132;2023-04-16T07:28:52;16.33;;;9.77;;
15693;SDS011;7947;48.834;9.132;2023-04-16T07:31:55;15.57;;;9.57;;
15693;SDS011;7947;48.834;9.132;2023-04-16T07:34:58;13.37;;;9.20;;
15693;SDS011;7947;48.834;9.132;2023-04-16T07:38:01;15.60;;;9.23;;
15693;SDS011;7947;48.834;9.132;2023-04-16T07:41:04;15.10;;;9.83;;
15693;SDS011;7947;48.834;9.132;2023-04-16T07:44:08;15.90;;;9.30;;
15693;SDS011;7947;48.834;9.132;2023-04-16T07:47:11;15.43;;;8.80;;
15693;SDS011;7947;48.834;9.132;2023-04-16T07:50:14;13.03;;;8.70;;
15693;SDS011;7947;48.834;9.132;2023-04-16T07:53:16;13.70;;;8.90;;
15693;SDS011;7947;48.834;9.132;2023-04-16T07:56:19;13.97;;;9.03;;
15693;SDS011;7947;48.834;9.132;2023-04-16T07:59:23;11.73;;;7.70;;
15693;SDS011;7947;48.834;9.132;2023-04-16T08:02:27;13.50;;;8.43;;
15693;SDS011;7947;48.834;9.132;2023-04-16T08:05:30;15.67;;;8.63;;
15693;SDS011;7947;48.834;9.132;2023-04-16T08:08:33;12.83;;;8.83;;
15693;SDS011;7947;48.834;9.132;2023-04-16T08:11:35;11.50;;;8.00;;
15693;SDS011;7947;48.834;9.132;2023-04-16T08:14:40;14.67;;;7.97;;
15693;SDS011;7947;48.834;9.132;2023-04-16T08:17:43;13.90;;;7.97;;
15693;SDS011;7947;48.834;9.132;2023-04-16T08:20:46;11.73;;;8.00;;
15693;SDS011;7947;48.834;9.132;2023-04-16T08:23:48;11.37;;;7.10;;
15693;SDS011;7947;48.834;9.132;2023-04-16T08:26:51;13.43;;;8.00;;
15693;SDS011;7947;48.834;9.132;2023-04-16T08:29:55;13.40;;;7.97;;
15693;SDS011;7947;48.834;9.132;2023-04-16T08:32:58;13.83;;;8.37;;
15693;SDS011;7947;48.834;9.132;2023-04-16T08:36:01;12.63;;;8.17;;
15693;SDS011;7947;48.834;9.132;2023-04-16T08:39:04;11.20;;;7.77;;
15693;SDS011;7947;48.834;9.132;2023-04-16T08:42:08;13.80;;;8.90;;
15693;SDS011;7947;48.834;9.132;2023-04-16T08:45:21;13.40;;;8.43;;
15693;SDS011;7947;48.834;9.132;2023-04-16T08:48:27;13.73;;;7.93;;
15693;SDS011;7947;48.834;9.132;2023-04-16T08:51:33;13.40;;;7.50;;
15693;SDS011;7947;48.834;9.132;2023-04-16T08:54:37;12.73;;;8.33;;
15693;SDS011;7947;48.834;9.132;2023-04-16T08:57:57;15.43;;;8.00;;
15693;SDS011;7947;48.834;9.132;2023-04-16T09:01:02;12.13;;;7.80;;
15693;SDS011;7947;48.834;9.132;2023-04-16T09:04:06;13.63;;;7.50;;
15693;SDS011;7947;48.834;9.132;2023-04-16T09:07:10;13.50;;;7.57;;
15693;SDS011;7947;48.834;9.132;2023-04-16T09:10:13;13.77;;;8.17;;
15693;SDS011;7947;48.834;9.132;2023-04-16T09:13:16;13.47;;;8.43;;
15693;SDS011;7947;48.834;9.132;2023-04-16T09:16:22;10.77;;;7.50;;
15693;SDS011;7947;48.834;9.132;2023-04-16T09:19:26;11.53;;;6.93;;
15693;SDS011;7947;48.834;9.132;2023-04-16T09:22:29;11.87;;;7.37;;
15693;SDS011;7947;48.834;9.132;2023-04-16T09:25:32;12.33;;;7.47;;
15693;SDS011;7947;48.834;9.132;2023-04-16T09:28:39;12.13;;;7.87;;
15693;SDS011;7947;48.834;9.132;2023-04-16T09:31:48;14.60;;;8.43;;
15693;SDS011;7947;48.834;9.132;2023-04-16T09:35:03;13.23;;;7.50;;
15693;SDS011;7947;48.834;9.132;2023-04-16T09:38:06;13.40;;;8.07;;
15693;SDS011;7947;48.834;9.132;2023-04-16T09:41:09;14.30;;;8.13;;
15693;SDS011;7947;48.834;9.132;2023-04-16T09:44:12;12.57;;;7.63;;
15693;SDS011;7947;48.834;9.132;2023-04-16T09:47:16;14.70;;;8.07;;
15693;SDS011;7947;48.834;9.132;2023-04-16T09:50:19;13.03;;;7.57;;
15693;SDS011;7947;48.834;9.132;2023-04-16T09:53:22;15.63;;;8.57;;
15693;SDS011;7947;48.834;9.132;2023-04-16T09:56:26;14.87;;;8.57;;
15693;SDS011;7947;48.834;9.132;2023-04-16T09:59:30;13.00;;;7.43;;
15693;SDS011;7947;48.834;9.132;2023-04-16T10:02:38;13.63;;;8.90;;
15693;SDS011;7947;48.834;9.132;2023-04-16T10:05:42;11.83;;;7.67;;
15693;SDS011;7947;48.834;9.132;2023-04-16T10:08:45;14.53;;;8.40;;
15693;SDS011;7947;48.834;9.132;2023-04-16T10:11:50;14.77;;;8.70;;
15693;SDS011;7947;48.834;9.132;2023-04-16T10:14:53;13.87;;;8.30;;
15693;SDS011;7947;48.834;9.132;2023-04-16T10:17:58;13.00;;;8.10;;
15693;SDS011;7947;48.834;9.132;2023-04-16T10:21:01;12.63;;;8.20;;
15693;SDS011;7947;48.834;9.132;2023-04-16T10:24:04;14.27;;;7.93;;
15693;SDS011;7947;48.834;9.132;2023-04-16T10:27:09;12.10;;;7.77;;
15693;SDS011;7947;48.834;9.132;2023-04-16T10:30:12;12.80;;;7.27;;
15693;SDS011;7947;48.834;9.132;2023-04-16T10:33:20;14.20;;;8.60;;
15693;SDS011;7947;48.834;9.132;2023-04-16T10:36:24;13.33;;;8.00;;
15693;SDS011;7947;48.834;9.132;2023-04-16T10:39:27;13.67;;;7.50;;
15693;SDS011;7947;48.834;9.132;2023-04-16T10:42:30;12.67;;;8.23;;
15693;SDS011;7947;48.834;9.132;2023-04-16T10:45:36;11.33;;;7.37;;
15693;SDS011;7947;48.834;9.132;2023-04-16T10:48:42;14.93;;;7.93;;
15693;SDS011;7947;48.834;9.132;2023-04-16T10:51:51;11.93;;;6.43;;
15693;SDS011;7947;48.834;9.132;2023-04-16T10:54:55;12.13;;;6.87;;
15693;SDS011;7947;48.834;9.132;2023-04-16T10:58:00;15.77;;;6.83;;
15693;SDS011;7947;48.834;9.132;2023-04-16T11:01:05;12.10;;;7.03;;
15693;SDS011;7947;48.834;9.132;2023-04-16T11:07:45;11.47;;;6.33;;
15693;SDS011;7947;48.834;9.132;2023-04-16T11:10:50;11.03;;;6.07;;
15693;SDS011;7947;48.834;9.132;2023-04-16T11:13:53;9.30;;;5.93;;
15693;SDS011;7947;48.834;9.132;2023-04-16T11:16:58;13.37;;;6.20;;
15693;SDS011;7947;48.834;9.132;2023-04-16T11:20:07;9.30;;;5.83;;
15693;SDS011;7947;48.834;9.132;2023-04-16T11:23:20;8.97;;;5.33;;
15693;SDS011;7947;48.834;9.132;2023-04-16T11:26:23;9.00;;;5.83;;
15693;SDS011;7947;48.834;9.132;2023-04-16T11:29:27;10.83;;;5.83;;
15693;SDS011;7947;48.834;9.132;2023-04-16T11:32:30;8.40;;;5.33;;
15693;SDS011;7947;48.834;9.132;2023-04-16T11:35:35;9.83;;;5.77;;
15693;SDS011;7947;48.834;9.132;2023-04-16T11:38:39;8.33;;;5.23;;
15693;SDS011;7947;48.834;9.132;2023-04-16T11:41:43;7.17;;;4.93;;
15693;SDS011;7947;48.834;9.132;2023-04-16T11:44:50;8.23;;;4.27;;
15693;SDS011;7947;48.834;9.132;2023-04-16T11:47:54;8.70;;;4.57;;
15693;SDS011;7947;48.834;9.132;2023-04-16T11:50:59;9.33;;;4.60;;
15693;SDS011;7947;48.834;9.132;2023-04-16T11:54:02;7.37;;;4.20;;
15693;SDS011;7947;48.834;9.132;2023-04-16T11:57:05;7.60;;;3.70;;
15693;SDS011;7947;48.834;9.132;2023-04-16T12:00:08;5.33;;;3.27;;
15693;SDS011;7947;48.834;9.132;2023-04-16T12:03:14;6.60;;;3.67;;
15693;SDS011;7947;48.834;9.132;2023-04-16T12:06:19;6.43;;;4.27;;
15693;SDS011;7947;48.834;9.132;2023-04-16T12:09:24;4.87;;;3.23;;
15693;SDS011;7947;48.834;9.132;2023-04-16T12:12:28;7.13;;;3.40;;
15693;SDS011;7947;48.834;9.132;2023-04-16T12:15:42;5.43;;;3.40;;
15693;SDS011;7947;48.834;9.132;2023-04-16T12:18:57;4.23;;;3.00;;
15693;SDS011;7947;48.834;9.132;2023-04-16T12:22:03;4.87;;;3.37;;
15693;SDS011;7947;48.834;9.132;2023-04-16T12:25:06;6.63;;;3.53;;
15693;SDS011;7947;48.834;9.132;2023-04-16T12:28:11;4.93;;;3.13;;
15693;SDS011;7947;48.834;9.132;2023-04-16T12:31:16;3.77;;;2.70;;
15693;SDS011;7947;48.834;9.132;2023-04-16T12:34:20;5.63;;;3.80;;
15693;SDS011;7947;48.834;9.132;2023-04-16T12:37:45;4.60;;;3.23;;
15693;SDS011;7947;48.834;9.132;2023-04-16T12:40:48;5.27;;;3.10;;
15693;SDS011;7947;48.834;9.132;2023-04-16T12:43:51;5.53;;;3.30;;
15693;SDS011;7947;48.834;9.132;2023-04-16T12:46:54;5.83;;;3.20;;
15693;SDS011;7947;48.834;9.132;2023-04-16T12:49:56;5.37;;;3.73;;
15693;SDS011;7947;48.834;9.132;2023-04-16T12:53:01;5.70;;;3.33;;
15693;SDS011;7947;48.834;9.132;2023-04-16T12:56:03;6.87;;;3.77;;
15693;SDS011;7947;48.834;9.132;2023-04-16T12:59:07;7.30;;;3.90;;
15693;SDS011;7947;48.834;9.132;2023-04-16T13:02:10;5.40;;;3.63;;
15693;SDS011;7947;48.834;9.132;2023-04-16T13:05:14;5.50;;;3.60;;
15693;SDS011;7947;48.834;9.132;2023-04-16T13:08:20;8.03;;;4.10;;
15693;SDS011;7947;48.834;9.132;2023-04-16T13:11:23;5.53;;;3.97;;
15693;SDS011;7947;48.834;9.132;2023-04-16T13:14:26;5.83;;;3.70;;
15693;SDS011;7947;48.834;9.132;2023-04-16T13:17:29;6.63;;;3.47;;
15693;SDS011;7947;48.834;9.132;2023-04-16T13:20:32;8.33;;;4.60;;
15693;SDS011;7947;48.834;9.132;2023-04-16T13:23:36;7.10;;;3.90;;
15693;SDS011;7947;48.834;9.132;2023-04-16T13:26:39;9.53;;;4.57;;
15693;SDS011;7947;48.834;9.132;2023-04-16T13:29:42;7.77;;;4.87;;
15693;SDS011;7947;48.834;9.132;2023-04-16T13:32:45;6.33;;;4.60;;
15693;SDS011;7947;48.834;9.132;2023-04-16T13:35:48;7.43;;;4.87;;
15693;SDS011;7947;48.834;9.132;2023-04-16T13:38:52;7.17;;;4.47;;
15693;SDS011;7947;48.834;9.132;2023-04-16T13:41:55;6.50;;;4.30;;
15693;SDS011;7947;48.834;9.132;2023-04-16T13:44:58;6.93;;;4.27;;
15693;SDS011;7947;48.834;9.132;2023-04-16T13:48:01;7.17;;;4.87;;
15693;SDS011;7947;48.834;9.132;2023-04-16T13:51:04;7.27;;;5.00;;
15693;SDS011;7947;48.834;9.132;2023-04-16T13:54:10;6.33;;;4.33;;
15693;SDS011;7947;48.834;9.132;2023-04-16T13:57:12;6.73;;;4.53;;
15693;SDS011;7947;48.834;9.132;2023-04-16T14:00:16;8.30;;;4.83;;
15693;SDS011;7947;48.834;9.132;2023-04-16T14:03:19;6.73;;;4.43;;
15693;SDS011;7947;48.834;9.132;2023-04-16T14:06:22;8.30;;;5.27;;
15693;SDS011;7947;48.834;9.132;2023-04-16T14:09:27;7.97;;;4.83;;
15693;SDS011;7947;48.834;9.132;2023-04-16T14:12:31;9.30;;;5.77;;
15693;SDS011;7947;48.834;9.132;2023-04-16T14:15:33;8.30;;;5.23;;
15693;SDS011;7947;48.834;9.132;2023-04-16T14:18:36;8.73;;;5.00;;
15693;SDS011;7947;48.834;9.132;2023-04-16T14:21:42;10.07;;;5.93;;
15693;SDS011;7947;48.834;9.132;2023-04-16T14:24:46;7.50;;;5.97;;
15693;SDS011;7947;48.834;9.132;2023-04-16T14:27:49;8.30;;;5.30;;
15693;SDS011;7947;48.834;9.132;2023-04-16T14:30:52;10.27;;;5.70;;
15693;SDS011;7947;48.834;9.132;2023-04-16T14:33:55;9.07;;;6.33;;
15693;SDS011;7947;48.834;9.132;2023-04-16T14:36:57;7.83;;;5.30;;
15693;SDS011;7947;48.834;9.132;2023-04-16T14:40:01;10.43;;;6.47;;
15693;SDS011;7947;48.834;9.132;2023-04-16T14:43:09;10.00;;;6.33;;
15693;SDS011;7947;48.834;9.132;2023-04-16T14:46:11;9.50;;;6.40;;
15693;SDS011;7947;48.834;9.132;2023-04-16T14:49:18;9.60;;;6.63;;
15693;SDS011;7947;48.834;9.132;2023-04-16T14:52:21;8.90;;;6.37;;
15693;SDS011;7947;48.834;9.132;2023-04-16T14:55:25;12.17;;;7.40;;
15693;SDS011;7947;48.834;9.132;2023-04-16T14:58:27;11.40;;;7.43;;
15693;SDS011;7947;48.834;9.132;2023-04-16T15:01:30;11.93;;;7.27;;
15693;SDS011;7947;48.834;9.132;2023-04-16T15:04:35;16.20;;;7.83;;
15693;SDS011;7947;48.834;9.132;2023-04-16T15:07:37;12.70;;;7.87;;
15693;SDS011;7947;48.834;9.132;2023-04-16T15:10:42;13.77;;;8.63;;
15693;SDS011;7947;48.834;9.132;2023-04-16T15:13:46;13.13;;;8.27;;
15693;SDS011;7947;48.834;9.132;2023-04-16T15:16:48;11.73;;;7.37;;
15693;SDS011;7947;48.834;9.132;2023-04-16T15:19:52;12.60;;;8.20;;
15693;SDS011;7947;48.834;9.132;2023-04-16T15:22:54;13.30;;;8.77;;
15693;SDS011;7947;48.834;9.132;2023-04-16T15:25:59;14.10;;;8.57;;
15693;SDS011;7947;48.834;9.132;2023-04-16T15:29:01;15.77;;;9.73;;
15693;SDS011;7947;48.834;9.132;2023-04-16T15:32:04;16.47;;;8.93;;
15693;SDS011;7947;48.834;9.132;2023-04-16T15:35:08;13.77;;;9.73;;
15693;SDS011;7947;48.834;9.132;2023-04-16T15:38:11;13.33;;;9.57;;
15693;SDS011;7947;48.834;9.132;2023-04-16T15:41:15;14.90;;;9.30;;
15693;SDS011;7947;48.834;9.132;2023-04-16T15:44:18;14.30;;;8.97;;
15693;SDS011;7947;48.834;9.132;2023-04-16T15:47:21;13.27;;;8.43;;
15693;SDS011;7947;48.834;9.132;2023-04-16T15:50:24;13.70;;;8.60;;
15693;SDS011;7947;48.834;9.132;2023-04-16T15:53:27;14.63;;;9.07;;
15693;SDS011;7947;48.834;9.132;2023-04-16T15:56:31;16.33;;;9.80;;
15693;SDS011;7947;48.834;9.132;2023-04-16T15:59:34;18.20;;;9.57;;
15693;SDS011;7947;48.834;9.132;2023-04-16T16:02:37;17.33;;;10.20;;
15693;SDS011;7947;48.834;9.132;2023-04-16T16:05:40;14.80;;;9.83;;
15693;SDS011;7947;48.834;9.132;2023-04-16T16:08:42;16.40;;;9.77;;
15693;SDS011;7947;48.834;9.132;2023-04-16T16:11:46;15.13;;;8.90;;
15693;SDS011;7947;48.834;9.132;2023-04-16T16:14:49;15.13;;;9.83;;
15693;SDS011;7947;48.834;9.132;2023-04-16T16:17:52;17.37;;;10.97;;
15693;SDS011;7947;48.834;9.132;2023-04-16T16:20:55;16.73;;;9.97;;
15693;SDS011;7947;48.834;9.132;2023-04-16T16:23:58;17.80;;;10.77;;
15693;SDS011;7947;48.834;9.132;2023-04-16T16:27:02;18.00;;;10.23;;
15693;SDS011;7947;48.834;9.132;2023-04-16T16:30:06;17.10;;;10.30;;
15693;SDS011;7947;48.834;9.132;2023-04-16T16:33:09;17.00;;;10.07;;
15693;SDS011;7947;48.834;9.132;2023-04-16T16:36:13;17.07;;;10.70;;
15693;SDS011;7947;48.834;9.132;2023-04-16T16:39:15;15.90;;;10.43;;
15693;SDS011;7947;48.834;9.132;2023-04-16T16:42:19;18.97;;;10.47;;
15693;SDS011;7947;48.834;9.132;2023-04-16T16:45:22;16.47;;;10.43;;
15693;SDS011;7947;48.834;9.132;2023-04-16T16:48:26;16.73;;;10.60;;
15693;SDS011;7947;48.834;9.132;2023-04-16T16:51:29;20.20;;;10.53;;
15693;SDS011;7947;48.834;9.132;2023-04-16T16:54:33;14.17;;;9.40;;
15693;SDS011;7947;48.834;9.132;2023-04-16T16:57:38;18.53;;;11.47;;
15693;SDS011;7947;48.834;9.132;2023-04-16T17:00:40;18.00;;;10.67;;
15693;SDS011;7947;48.834;9.132;2023-04-16T17:03:43;15.97;;;10.70;;
15693;SDS011;7947;48.834;9.132;2023-04-16T17:06:46;16.43;;;10.13;;
15693;SDS011;7947;48.834;9.132;2023-04-16T17:09:49;20.67;;;11.63;;
15693;SDS011;7947;48.834;9.132;2023-04-16T17:12:53;19.27;;;10.90;;
15693;SDS011;7947;48.834;9.132;2023-04-16T17:15:56;18.03;;;11.63;;
15693;SDS011;7947;48.834;9.132;2023-04-16T17:18:58;17.60;;;11.03;;
15693;SDS011;7947;48.834;9.132;2023-04-16T17:22:01;16.53;;;9.97;;
15693;SDS011;7947;48.834;9.132;2023-04-16T17:25:05;17.47;;;11.13;;
15693;SDS011;7947;48.834;9.132;2023-04-16T17:28:10;18.07;;;11.00;;
15693;SDS011;7947;48.834;9.132;2023-04-16T17:31:13;16.30;;;10.13;;
15693;SDS011;7947;48.834;9.132;2023-04-16T17:34:16;16.70;;;10.70;;
15693;SDS011;7947;48.834;9.132;2023-04-16T17:37:19;18.53;;;10.80;;
15693;SDS011;7947;48.834;9.132;2023-04-16T17:40:22;18.13;;;11.20;;
15693;SDS011;7947;48.834;9.132;2023-04-16T17:43:26;17.57;;;11.13;;
15693;SDS011;7947;48.834;9.132;2023-04-16T17:46:29;17.87;;;11.13;;
15693;SDS011;7947;48.834;9.132;2023-04-16T17:49:32;18.80;;;10.87;;
15693;SDS011;7947;48.834;9.132;2023-04-16T17:52:35;21.50;;;12.10;;
15693;SDS011;7947;48.834;9.132;2023-04-16T17:55:38;17.90;;;11.43;;
15693;SDS011;7947;48.834;9.132;2023-04-16T17:58:44;19.53;;;12.47;;
15693;SDS011;7947;48.834;9.132;2023-04-16T18:01:47;19.83;;;11.40;;
15693;SDS011;7947;48.834;9.132;2023-04-16T18:04:50;26.10;;;14.97;;
15693;SDS011;7947;48.834;9.132;2023-04-16T18:07:53;25.83;;;13.73;;
15693;SDS011;7947;48.834;9.132;2023-04-16T18:10:56;19.67;;;12.32;;
15693;SDS011;7947;48.834;9.132;2023-04-16T18:14:00;19.37;;;12.50;;
15693;SDS011;7947;48.834;9.132;2023-04-16T18:17:03;16.90;;;11.33;;
15693;SDS011;7947;48.834;9.132;2023-04-16T18:20:07;19.60;;;11.57;;
15693;SDS011;7947;48.834;9.132;2023-04-16T18:23:11;22.37;;;12.67;;
15693;SDS011;7947;48.834;9.132;2023-04-16T18:26:14;18.57;;;11.63;;
15693;SDS011;7947;48.834;9.132;2023-04-16T18:29:22;17.53;;;10.60;;
15693;SDS011;7947;48.834;9.132;2023-04-16T18:32:26;15.90;;;10.57;;
15693;SDS011;7947;48.834;9.132;2023-04-16T18:35:31;17.30;;;11.00;;